createdAt,value
2023-04-26T00:00:35.441Z,2887.00
2023-04-26T00:01:35.411Z,2905.00
2023-04-26T00:02:35.506Z,2896.00
2023-04-26T00:03:35.600Z,2889.00
2023-04-26T00:04:35.422Z,2895.00
2023-04-26T00:05:35.356Z,2881.00
2023-04-26T00:06:35.312Z,2889.00
2023-04-26T00:07:35.279Z,2864.00
2023-04-26T00:08:35.274Z,2877.00
2023-04-26T00:09:35.226Z,2875.00
2023-04-26T00:10:35.225Z,2870.00
2023-04-26T00:11:35.214Z,2878.00
2023-04-26T00:12:35.208Z,2865.00
2023-04-26T00:13:35.248Z,2865.00
2023-04-26T00:14:35.220Z,2864.00
2023-04-26T00:15:35.233Z,2851.00
2023-04-26T00:16:35.282Z,2848.00
2023-04-26T00:17:35.223Z,2852.00
2023-04-26T00:18:35.212Z,2845.00
2023-04-26T00:19:35.222Z,2835.00
2023-04-26T00:20:35.214Z,2843.00
2023-04-26T00:21:35.221Z,2836.00
2023-04-26T00:22:35.208Z,2829.00
2023-04-26T00:23:35.210Z,2834.00
2023-04-26T00:24:35.217Z,2833.00
2023-04-26T00:25:35.231Z,2828.00
2023-04-26T00:26:35.235Z,2827.00
2023-04-26T00:27:35.241Z,2814.00
2023-04-26T00:28:35.243Z,2822.00
2023-04-26T00:29:35.265Z,2803.00
2023-04-26T00:30:35.270Z,2810.00
2023-04-26T00:31:35.332Z,2801.00
2023-04-26T00:32:35.287Z,2813.00
2023-04-26T00:33:35.252Z,2802.00
2023-04-26T00:34:35.254Z,2802.00
2023-04-26T00:35:35.244Z,2796.00
2023-04-26T00:36:35.234Z,2801.00
2023-04-26T00:37:35.286Z,2795.00
2023-04-26T00:38:35.241Z,2797.00
2023-04-26T00:39:35.262Z,2780.00
2023-04-26T00:40:35.296Z,2788.00
2023-04-26T00:41:35.259Z,2787.00
2023-04-26T00:42:35.244Z,2778.00
2023-04-26T00:43:35.265Z,2774.00
2023-04-26T00:44:35.265Z,2768.00
2023-04-26T00:45:35.361Z,2771.00
2023-04-26T00:46:35.255Z,2769.00
2023-04-26T00:47:35.299Z,2751.00
2023-04-26T00:48:35.278Z,2763.00
2023-04-26T00:49:35.251Z,2753.00
2023-04-26T00:50:35.258Z,2744.00
2023-04-26T00:51:35.237Z,2744.00
2023-04-26T00:52:35.230Z,2743.00
2023-04-26T00:53:35.247Z,2755.00
2023-04-26T00:54:35.244Z,2744.00
2023-04-26T00:55:35.273Z,2739.00
2023-04-26T00:56:35.251Z,2737.00
2023-04-26T00:57:35.273Z,2731.00
2023-04-26T00:58:35.258Z,2725.00
2023-04-26T00:59:35.245Z,2725.00
2023-04-26T01:00:35.252Z,2735.00
2023-04-26T01:01:35.363Z,2716.00
2023-04-26T01:02:35.331Z,2711.00
2023-04-26T01:03:35.344Z,2710.00
2023-04-26T01:04:35.250Z,2712.00
2023-04-26T01:05:35.245Z,2702.00
2023-04-26T01:06:35.243Z,2707.00
2023-04-26T01:07:35.251Z,2717.00
2023-04-26T01:08:35.233Z,2695.00
2023-04-26T01:09:35.232Z,2705.00
2023-04-26T01:10:35.238Z,2700.00
2023-04-26T01:11:35.249Z,2671.00
2023-04-26T01:12:35.256Z,2689.00
2023-04-26T01:13:35.258Z,2698.00
2023-04-26T01:14:35.254Z,2684.00
2023-04-26T01:15:35.263Z,2682.00
2023-04-26T01:16:35.279Z,2671.00
2023-04-26T01:17:35.259Z,2667.00
2023-04-26T01:18:35.254Z,2669.00
2023-04-26T01:19:35.264Z,2663.00
2023-04-26T01:20:35.247Z,2672.00
2023-04-26T01:21:35.252Z,2668.00
2023-04-26T01:22:35.262Z,2659.00
2023-04-26T01:23:35.290Z,2658.00
2023-04-26T01:24:35.261Z,2656.00
2023-04-26T01:25:35.260Z,2670.00
2023-04-26T01:26:35.249Z,2660.00
2023-04-26T01:27:35.245Z,2646.00
2023-04-26T01:28:35.251Z,2645.00
2023-04-26T01:29:35.266Z,2653.00
2023-04-26T01:30:35.238Z,2659.00
2023-04-26T01:31:35.332Z,2656.00
2023-04-26T01:32:35.244Z,2656.00
2023-04-26T01:33:35.204Z,2634.00
2023-04-26T01:34:35.167Z,2654.00
2023-04-26T01:35:35.159Z,2649.00
2023-04-26T01:36:35.121Z,2651.00
2023-04-26T01:37:35.102Z,2639.00
2023-04-26T01:38:35.086Z,2635.00
2023-04-26T01:39:35.055Z,2638.00
2023-04-26T01:40:35.045Z,2617.00
2023-04-26T01:41:35.024Z,2625.00
2023-04-26T01:42:35.001Z,2621.00
2023-04-26T01:43:34.963Z,2631.00
2023-04-26T01:44:34.941Z,2611.00
2023-04-26T01:45:34.920Z,2610.00
2023-04-26T01:46:34.940Z,2614.00
2023-04-26T01:47:34.884Z,2616.00
2023-04-26T01:48:34.848Z,2596.00
2023-04-26T01:49:34.838Z,2592.00
2023-04-26T01:50:34.798Z,2594.00
2023-04-26T01:51:34.794Z,2601.00
2023-04-26T01:52:34.752Z,2602.00
2023-04-26T01:53:34.728Z,2597.00
2023-04-26T01:54:34.720Z,2584.00
2023-04-26T01:55:34.707Z,2579.00
2023-04-26T01:56:34.692Z,2582.00
2023-04-26T01:57:34.680Z,2580.00
2023-04-26T01:58:34.661Z,2572.00
2023-04-26T01:59:34.634Z,2569.00
2023-04-26T02:00:34.619Z,2572.00
2023-04-26T02:01:34.675Z,2574.00
2023-04-26T02:02:34.676Z,2562.00
2023-04-26T02:03:34.662Z,2584.00
2023-04-26T02:04:34.661Z,2571.00
2023-04-26T02:05:34.629Z,2555.00
2023-04-26T02:06:34.657Z,2562.00
2023-04-26T02:07:34.645Z,2554.00
2023-04-26T02:08:34.635Z,2553.00
2023-04-26T02:09:34.652Z,2543.00
2023-04-26T02:10:34.636Z,2538.00
2023-04-26T02:11:34.643Z,2541.00
2023-04-26T02:12:34.626Z,2523.00
2023-04-26T02:13:34.645Z,2539.00
2023-04-26T02:14:34.688Z,2524.00
2023-04-26T02:15:34.632Z,2529.00
2023-04-26T02:16:34.679Z,2528.00
2023-04-26T02:17:34.702Z,2522.00
2023-04-26T02:18:34.651Z,2532.00
2023-04-26T02:19:34.652Z,2534.00
2023-04-26T02:20:34.633Z,2516.00
2023-04-26T02:21:34.637Z,2512.00
2023-04-26T02:22:34.646Z,2507.00
2023-04-26T02:23:34.648Z,2510.00
2023-04-26T02:24:34.663Z,2500.00
2023-04-26T02:25:34.661Z,2507.00
2023-04-26T02:26:34.665Z,2511.00
2023-04-26T02:27:34.647Z,2501.00
2023-04-26T02:28:34.682Z,2498.00
2023-04-26T02:29:43.066Z,2495.00
2023-04-26T02:30:35.658Z,2495.00
2023-04-26T02:31:34.647Z,2496.00
2023-04-26T02:32:34.618Z,2499.00
2023-04-26T02:33:34.574Z,2496.00
2023-04-26T02:34:34.573Z,2496.00
2023-04-26T02:35:34.522Z,2501.00
2023-04-26T02:36:34.522Z,2505.00
2023-04-26T02:37:34.485Z,2495.00
2023-04-26T02:38:34.516Z,2496.00
2023-04-26T02:39:34.449Z,2495.00
2023-04-26T02:40:34.415Z,2497.00
2023-04-26T02:41:34.447Z,2482.00
2023-04-26T02:42:34.369Z,2497.00
2023-04-26T02:43:34.356Z,2479.00
2023-04-26T02:44:34.354Z,2490.00
2023-04-26T02:45:34.302Z,2478.00
2023-04-26T02:46:34.317Z,2453.00
2023-04-26T02:47:34.280Z,2429.00
2023-04-26T02:48:34.235Z,2370.00
2023-04-26T02:49:34.213Z,2265.00
2023-04-26T02:50:34.188Z,2192.00
2023-04-26T02:51:34.180Z,2141.00
2023-04-26T02:52:34.151Z,2080.00
2023-04-26T02:53:34.120Z,1974.00
2023-04-26T02:54:34.121Z,1884.00
2023-04-26T02:55:34.097Z,1814.00
2023-04-26T02:56:34.138Z,1771.00
2023-04-26T02:57:34.173Z,1697.00
2023-04-26T02:58:34.218Z,1631.00
2023-04-26T02:59:34.265Z,1570.00
2023-04-26T03:00:34.394Z,1497.00
2023-04-26T03:01:34.424Z,1449.00
2023-04-26T03:02:34.646Z,1409.00
2023-04-26T03:03:34.537Z,1375.00
2023-04-26T03:04:34.461Z,1335.00
2023-04-26T03:05:34.494Z,1281.00
2023-04-26T03:06:34.512Z,1264.00
2023-04-26T03:07:34.542Z,1254.00
2023-04-26T03:08:34.555Z,1185.00
2023-04-26T03:09:34.592Z,1168.00
2023-04-26T03:10:34.580Z,1154.00
2023-04-26T03:11:34.591Z,1151.00
2023-04-26T03:12:34.563Z,1141.00
2023-04-26T03:13:34.530Z,1117.00
2023-04-26T03:14:34.502Z,1077.00
2023-04-26T03:15:34.498Z,1081.00
2023-04-26T03:16:34.553Z,1035.00
2023-04-26T03:17:34.499Z,1025.00
2023-04-26T03:18:34.450Z,1015.00
2023-04-26T03:19:34.454Z,1017.00
2023-04-26T03:20:34.420Z,1005.00
2023-04-26T03:21:34.403Z,967.00
2023-04-26T03:22:34.392Z,974.00
2023-04-26T03:23:34.355Z,926.00
2023-04-26T03:24:34.345Z,939.00
2023-04-26T03:25:34.313Z,978.00
2023-04-26T03:26:34.302Z,926.00
2023-04-26T03:27:34.269Z,909.00
2023-04-26T03:28:34.259Z,885.00
2023-04-26T03:29:34.250Z,885.00
2023-04-26T03:30:34.263Z,864.00
2023-04-26T03:31:34.247Z,876.00
2023-04-26T03:32:34.268Z,838.00
2023-04-26T03:33:34.182Z,845.00
2023-04-26T03:34:34.202Z,811.00
2023-04-26T03:35:34.154Z,784.00
2023-04-26T03:36:34.153Z,751.00
2023-04-26T03:37:34.128Z,749.00
2023-04-26T03:38:34.131Z,742.00
2023-04-26T03:39:34.103Z,692.00
2023-04-26T03:40:34.077Z,739.00
2023-04-26T03:41:34.056Z,713.00
2023-04-26T03:42:34.074Z,707.00
2023-04-26T03:43:34.038Z,717.00
2023-04-26T03:44:34.034Z,726.00
2023-04-26T03:45:34.027Z,692.00
2023-04-26T03:46:33.987Z,692.00
2023-04-26T03:47:33.987Z,691.00
2023-04-26T03:48:33.947Z,674.00
2023-04-26T03:49:33.953Z,659.00
2023-04-26T03:50:33.911Z,655.00
2023-04-26T03:51:33.893Z,652.00
2023-04-26T03:52:33.883Z,648.00
2023-04-26T03:53:33.865Z,638.00
2023-04-26T03:54:33.876Z,630.00
2023-04-26T03:55:33.826Z,624.00
2023-04-26T03:56:33.809Z,623.00
2023-04-26T03:57:33.807Z,611.00
2023-04-26T03:58:33.804Z,609.00
2023-04-26T03:59:33.762Z,603.00
2023-04-26T04:00:33.734Z,600.00
2023-04-26T04:01:33.724Z,586.00
2023-04-26T04:02:33.790Z,586.00
2023-04-26T04:03:33.864Z,578.00
2023-04-26T04:04:33.861Z,585.00
2023-04-26T04:05:33.676Z,581.00
2023-04-26T04:06:33.634Z,580.00
2023-04-26T04:07:33.631Z,588.00
2023-04-26T04:08:33.608Z,588.00
2023-04-26T04:09:33.622Z,590.00
2023-04-26T04:10:33.610Z,594.00
2023-04-26T04:11:33.628Z,591.00
2023-04-26T04:12:33.643Z,594.00
2023-04-26T04:13:33.647Z,593.00
2023-04-26T04:14:33.616Z,594.00
2023-04-26T04:15:33.637Z,595.00
2023-04-26T04:16:33.602Z,584.00
2023-04-26T04:17:33.606Z,600.00
2023-04-26T04:18:33.565Z,602.00
2023-04-26T04:19:33.552Z,602.00
2023-04-26T04:20:33.531Z,602.00
2023-04-26T04:21:33.524Z,603.00
2023-04-26T04:22:33.528Z,604.00
2023-04-26T04:23:33.493Z,605.00
2023-04-26T04:24:34.519Z,614.00
2023-04-26T04:25:33.477Z,613.00
2023-04-26T04:26:33.463Z,619.00
2023-04-26T04:27:33.439Z,620.00
2023-04-26T04:28:33.444Z,638.00
2023-04-26T04:29:33.437Z,651.00
2023-04-26T04:30:33.410Z,649.00
2023-04-26T04:31:33.416Z,644.00
2023-04-26T04:32:33.403Z,641.00
2023-04-26T04:33:33.373Z,644.00
2023-04-26T04:34:33.373Z,657.00
2023-04-26T04:35:33.394Z,651.00
2023-04-26T04:36:33.345Z,647.00
2023-04-26T04:37:33.319Z,638.00
2023-04-26T04:38:33.305Z,639.00
2023-04-26T04:39:33.299Z,636.00
2023-04-26T04:40:33.300Z,637.00
2023-04-26T04:41:33.268Z,639.00
2023-04-26T04:42:33.264Z,638.00
2023-04-26T04:43:33.252Z,648.00
2023-04-26T04:44:33.260Z,651.00
2023-04-26T04:45:33.213Z,636.00
2023-04-26T04:46:33.290Z,635.00
2023-04-26T04:47:33.218Z,640.00
2023-04-26T04:48:33.167Z,646.00
2023-04-26T04:49:33.176Z,645.00
2023-04-26T04:50:33.152Z,637.00
2023-04-26T04:51:33.142Z,645.00
2023-04-26T04:52:33.116Z,649.00
2023-04-26T04:53:33.126Z,650.00
2023-04-26T04:54:33.093Z,657.00
2023-04-26T04:55:33.081Z,663.00
2023-04-26T04:56:33.105Z,680.00
2023-04-26T04:57:33.128Z,685.00
2023-04-26T04:58:33.156Z,712.00
2023-04-26T04:59:33.184Z,704.00
2023-04-26T05:00:33.197Z,709.00
2023-04-26T05:01:33.218Z,715.00
2023-04-26T05:02:33.362Z,666.00
2023-04-26T05:03:33.342Z,644.00
2023-04-26T05:04:33.494Z,644.00
2023-04-26T05:05:33.292Z,634.00
2023-04-26T05:06:33.306Z,628.00
2023-04-26T05:07:33.325Z,628.00
2023-04-26T05:08:33.363Z,619.00
2023-04-26T05:09:33.441Z,615.00
2023-04-26T05:10:33.442Z,614.00
2023-04-26T05:11:33.392Z,614.00
2023-04-26T05:12:33.408Z,605.00
2023-04-26T05:13:33.361Z,612.00
2023-04-26T05:14:33.342Z,608.00
2023-04-26T05:15:33.353Z,604.00
2023-04-26T05:16:33.329Z,596.00
2023-04-26T05:17:33.321Z,601.00
2023-04-26T05:18:33.294Z,604.00
2023-04-26T05:19:33.323Z,612.00
2023-04-26T05:20:33.276Z,619.00
2023-04-26T05:21:33.237Z,621.00
2023-04-26T05:22:33.217Z,621.00
2023-04-26T05:23:33.210Z,624.00
2023-04-26T05:24:33.195Z,624.00
2023-04-26T05:25:33.194Z,625.00
2023-04-26T05:26:33.178Z,629.00
2023-04-26T05:27:33.198Z,640.00
2023-04-26T05:28:33.168Z,652.00
2023-04-26T05:29:33.172Z,655.00
2023-04-26T05:30:33.154Z,663.00
2023-04-26T05:31:33.195Z,679.00
2023-04-26T05:32:33.211Z,681.00
2023-04-26T05:33:33.146Z,694.00
2023-04-26T05:34:33.103Z,688.00
2023-04-26T05:35:33.112Z,749.00
2023-04-26T05:36:33.071Z,764.00
2023-04-26T05:37:33.073Z,770.00
2023-04-26T05:38:33.122Z,783.00
2023-04-26T05:39:33.160Z,828.00
2023-04-26T05:40:33.222Z,852.00
2023-04-26T05:41:33.205Z,868.00
2023-04-26T05:42:33.268Z,898.00
2023-04-26T05:43:33.269Z,920.00
2023-04-26T05:44:33.288Z,979.00
2023-04-26T05:45:33.525Z,1020.00
2023-04-26T05:46:33.354Z,1075.00
2023-04-26T05:47:33.355Z,1078.00
2023-04-26T05:48:33.294Z,1096.00
2023-04-26T05:49:33.254Z,1146.00
2023-04-26T05:50:33.262Z,1232.00
2023-04-26T05:51:33.263Z,1371.00
2023-04-26T05:52:33.211Z,1088.00
2023-04-26T05:53:33.156Z,1135.00
2023-04-26T05:54:33.148Z,1224.00
2023-04-26T05:55:33.157Z,1360.00
2023-04-26T05:56:33.127Z,1576.00
2023-04-26T05:57:33.097Z,1632.00
2023-04-26T05:58:33.123Z,1628.00
2023-04-26T05:59:33.127Z,1673.00
2023-04-26T06:00:33.119Z,1656.00
2023-04-26T06:01:33.107Z,1681.00
2023-04-26T06:02:33.128Z,1667.00
2023-04-26T06:03:33.206Z,1687.00
2023-04-26T06:04:33.226Z,1643.00
2023-04-26T06:05:33.016Z,1631.00
2023-04-26T06:06:32.933Z,1631.00
2023-04-26T06:07:32.922Z,1628.00
2023-04-26T06:08:32.916Z,1580.00
2023-04-26T06:09:32.864Z,1603.00
2023-04-26T06:10:32.844Z,1564.00
2023-04-26T06:11:32.871Z,1598.00
2023-04-26T06:12:32.815Z,1580.00
2023-04-26T06:13:32.826Z,1609.00
2023-04-26T06:14:32.769Z,1603.00
2023-04-26T06:15:32.780Z,1624.00
2023-04-26T06:16:32.812Z,1564.00
2023-04-26T06:17:32.776Z,1593.00
2023-04-26T06:18:32.713Z,1589.00
2023-04-26T06:19:32.690Z,1583.00
2023-04-26T06:20:32.660Z,1590.00
2023-04-26T06:21:32.721Z,1596.00
2023-04-26T06:22:32.739Z,1587.00
2023-04-26T06:23:32.789Z,1564.00
2023-04-26T06:24:32.763Z,1565.00
2023-04-26T06:25:32.729Z,1571.00
2023-04-26T06:26:32.716Z,1596.00
2023-04-26T06:27:32.726Z,1591.00
2023-04-26T06:28:32.672Z,1660.00
2023-04-26T06:29:32.658Z,1694.00
2023-04-26T06:30:32.683Z,1692.00
2023-04-26T06:31:32.745Z,1712.00
2023-04-26T06:32:32.700Z,1722.00
2023-04-26T06:33:32.701Z,1804.00
2023-04-26T06:34:33.005Z,1891.00
2023-04-26T06:35:32.811Z,1929.00
2023-04-26T06:36:32.784Z,1962.00
2023-04-26T06:37:32.822Z,1980.00
2023-04-26T06:38:32.851Z,2011.00
2023-04-26T06:39:32.873Z,2053.00
2023-04-26T06:40:32.907Z,2103.00
2023-04-26T06:41:32.866Z,2142.00
2023-04-26T06:42:32.923Z,2202.00
2023-04-26T06:43:32.917Z,2236.00
2023-04-26T06:44:32.946Z,2245.00
2023-04-26T06:45:33.041Z,2149.00
2023-04-26T06:46:33.311Z,1915.00
2023-04-26T06:47:33.101Z,1451.00
2023-04-26T06:48:33.020Z,1138.00
2023-04-26T06:49:33.087Z,799.00
2023-04-26T06:50:33.081Z,626.00
2023-04-26T06:51:33.042Z,554.00
2023-04-26T06:52:33.107Z,495.00
2023-04-26T06:53:33.018Z,446.00
2023-04-26T06:54:34.613Z,400.00
2023-04-26T06:55:33.778Z,400.00
2023-04-26T06:56:33.009Z,400.00
2023-04-26T06:57:32.959Z,400.00
2023-04-26T06:58:32.930Z,400.00
2023-04-26T06:59:32.924Z,400.00
2023-04-26T07:00:32.933Z,400.00
2023-04-26T07:01:32.921Z,400.00
2023-04-26T07:02:33.018Z,400.00
2023-04-26T07:03:33.001Z,400.00
2023-04-26T07:04:33.013Z,400.00
2023-04-26T07:05:32.795Z,400.00
2023-04-26T07:06:32.770Z,400.00
2023-04-26T07:07:32.872Z,400.00
2023-04-26T07:08:32.800Z,400.00
2023-04-26T07:09:32.731Z,400.00
2023-04-26T07:10:34.247Z,400.00
2023-04-26T07:11:32.720Z,400.00
2023-04-26T07:12:32.688Z,400.00
2023-04-26T07:13:32.703Z,400.00
2023-04-26T07:14:32.651Z,400.00
2023-04-26T07:15:32.661Z,400.00
2023-04-26T07:16:32.685Z,446.00
2023-04-26T07:17:32.616Z,490.00
2023-04-26T07:18:32.596Z,500.00
2023-04-26T07:19:32.581Z,508.00
2023-04-26T07:20:32.560Z,497.00
2023-04-26T07:21:32.799Z,504.00
2023-04-26T07:22:32.577Z,495.00
2023-04-26T07:23:32.581Z,510.00
2023-04-26T07:24:32.515Z,529.00
2023-04-26T07:25:32.511Z,582.00
2023-04-26T07:26:32.632Z,661.00
2023-04-26T07:27:32.444Z,775.00
2023-04-26T07:28:32.434Z,1038.00
2023-04-26T07:29:32.412Z,1180.00
2023-04-26T07:30:32.410Z,1346.00
2023-04-26T07:31:32.487Z,1460.00
2023-04-26T07:32:32.520Z,1583.00
2023-04-26T07:33:32.437Z,1647.00
2023-04-26T07:34:32.363Z,1719.00
2023-04-26T07:35:32.386Z,1832.00
2023-04-26T07:36:32.498Z,1945.00
2023-04-26T07:37:32.486Z,1981.00
2023-04-26T07:38:32.497Z,2013.00
2023-04-26T07:39:32.532Z,2102.00
2023-04-26T07:40:32.565Z,2814.00
2023-04-26T07:41:32.575Z,2868.00
2023-04-26T07:42:32.637Z,2658.00
2023-04-26T07:43:32.723Z,2335.00
2023-04-26T07:44:32.693Z,2046.00
2023-04-26T07:45:32.776Z,1817.00
2023-04-26T07:46:32.805Z,1698.00
2023-04-26T07:47:32.896Z,1724.00
2023-04-26T07:48:32.925Z,1855.00
2023-04-26T07:49:32.946Z,1940.00
2023-04-26T07:50:33.004Z,1926.00
2023-04-26T07:51:33.056Z,2069.00
2023-04-26T07:52:33.088Z,2181.00
2023-04-26T07:53:33.145Z,2254.00
2023-04-26T07:54:33.191Z,2242.00
2023-04-26T07:55:33.191Z,2216.00
2023-04-26T07:56:33.215Z,2310.00
2023-04-26T07:57:33.262Z,2351.00
2023-04-26T07:58:33.264Z,2391.00
2023-04-26T07:59:33.273Z,2444.00
2023-04-26T08:00:33.308Z,2535.00
2023-04-26T08:01:33.390Z,2579.00
2023-04-26T08:02:44.444Z,2551.00
2023-04-26T08:03:34.714Z,2554.00
2023-04-26T08:04:33.486Z,2571.00
2023-04-26T08:05:33.558Z,2597.00
2023-04-26T08:06:33.258Z,2659.00
2023-04-26T08:07:33.222Z,2832.00
2023-04-26T08:08:33.207Z,2562.00
2023-04-26T08:09:33.195Z,2601.00
2023-04-26T08:10:33.161Z,2688.00
2023-04-26T08:11:33.217Z,2788.00
2023-04-26T08:12:33.144Z,2968.00
2023-04-26T08:13:33.128Z,3004.00
2023-04-26T08:14:33.111Z,3013.00
2023-04-26T08:15:33.093Z,3029.00
2023-04-26T08:16:33.181Z,3028.00
2023-04-26T08:17:33.061Z,3039.00
2023-04-26T08:18:33.008Z,3016.00
2023-04-26T08:19:33.025Z,3078.00
2023-04-26T08:20:32.962Z,3142.00
2023-04-26T08:21:32.927Z,3069.00
2023-04-26T08:22:32.901Z,3159.00
2023-04-26T08:23:32.902Z,3262.00
2023-04-26T08:24:32.875Z,3200.00
2023-04-26T08:25:32.821Z,3109.00
2023-04-26T08:26:32.796Z,3151.00
2023-04-26T08:27:32.762Z,3157.00
2023-04-26T08:28:32.738Z,3209.00
2023-04-26T08:29:32.714Z,3162.00
2023-04-26T08:30:32.833Z,3253.00
2023-04-26T08:31:32.734Z,3298.00
2023-04-26T08:32:32.644Z,3373.00
2023-04-26T08:33:32.592Z,3374.00
2023-04-26T08:34:32.561Z,3350.00
2023-04-26T08:35:32.559Z,3279.00
2023-04-26T08:36:32.539Z,3279.00
2023-04-26T08:37:32.486Z,3284.00
2023-04-26T08:38:32.457Z,3190.00
2023-04-26T08:39:32.461Z,3084.00
2023-04-26T08:40:32.435Z,3017.00
2023-04-26T08:41:32.386Z,2992.00
2023-04-26T08:42:32.352Z,2896.00
2023-04-26T08:43:32.362Z,2810.00
2023-04-26T08:44:32.324Z,2723.00
2023-04-26T08:45:32.262Z,2716.00
2023-04-26T08:46:32.420Z,2658.00
2023-04-26T08:47:32.445Z,2661.00
2023-04-26T08:48:32.179Z,2597.00
2023-04-26T08:49:32.151Z,2588.00
2023-04-26T08:50:32.147Z,2555.00
2023-04-26T08:51:32.097Z,2479.00
2023-04-26T08:52:32.098Z,2485.00
2023-04-26T08:53:32.065Z,2320.00
2023-04-26T08:54:32.040Z,2093.00
2023-04-26T08:55:32.073Z,1944.00
2023-04-26T08:56:31.959Z,1782.00
2023-04-26T08:57:31.936Z,1581.00
2023-04-26T08:58:31.928Z,1300.00
2023-04-26T08:59:31.959Z,1162.00
2023-04-26T09:00:31.866Z,984.00
2023-04-26T09:01:31.884Z,732.00
2023-04-26T09:02:31.979Z,659.00
2023-04-26T09:03:31.905Z,615.00
2023-04-26T09:04:31.976Z,585.00
2023-04-26T09:05:31.978Z,537.00
2023-04-26T09:06:31.863Z,516.00
2023-04-26T09:07:31.901Z,500.00
2023-04-26T09:08:31.980Z,500.00
2023-04-26T09:09:31.967Z,500.00
2023-04-26T09:10:32.007Z,500.00
2023-04-26T09:11:32.023Z,508.00
2023-04-26T09:12:32.064Z,508.00
2023-04-26T09:13:32.142Z,495.00
2023-04-26T09:14:32.146Z,507.00
2023-04-26T09:15:32.202Z,500.00
2023-04-26T09:16:32.266Z,508.00
2023-04-26T09:17:32.331Z,509.00
2023-04-26T09:18:32.371Z,505.00
2023-04-26T09:19:32.396Z,513.00
2023-04-26T09:20:32.440Z,528.00
2023-04-26T09:21:32.423Z,529.00
2023-04-26T09:22:32.430Z,536.00
2023-04-26T09:23:32.403Z,551.00
2023-04-26T09:24:32.374Z,573.00
2023-04-26T09:25:32.392Z,612.00
2023-04-26T09:26:32.359Z,630.00
2023-04-26T09:27:32.371Z,624.00
2023-04-26T09:28:32.366Z,618.00
2023-04-26T09:29:32.366Z,620.00
2023-04-26T09:30:32.447Z,635.00
2023-04-26T09:31:32.507Z,626.00
2023-04-26T09:32:32.515Z,623.00
2023-04-26T09:33:32.572Z,598.00
2023-04-26T09:34:32.618Z,589.00
2023-04-26T09:35:32.662Z,570.00
2023-04-26T09:36:32.747Z,561.00
2023-04-26T09:37:33.401Z,517.00
2023-04-26T09:38:32.667Z,482.00
2023-04-26T09:39:32.664Z,467.00
2023-04-26T09:40:32.683Z,490.00
2023-04-26T09:41:32.688Z,565.00
2023-04-26T09:42:32.624Z,587.00
2023-04-26T09:43:34.249Z,716.00
2023-04-26T09:44:32.674Z,940.00
2023-04-26T09:45:32.697Z,1117.00
2023-04-26T09:46:32.582Z,1294.00
2023-04-26T09:47:32.611Z,1300.00
2023-04-26T09:48:32.515Z,1340.00
2023-04-26T09:49:32.517Z,1445.00
2023-04-26T09:50:32.505Z,1632.00
2023-04-26T09:51:32.481Z,1947.00
2023-04-26T09:52:32.444Z,2079.00
2023-04-26T09:53:32.413Z,2151.00
2023-04-26T09:54:32.382Z,2251.00
2023-04-26T09:55:35.425Z,2336.00
2023-04-26T09:56:32.350Z,2397.00
2023-04-26T09:57:32.328Z,2470.00
2023-04-26T09:58:32.292Z,2538.00
2023-04-26T09:59:32.276Z,2564.00
2023-04-26T10:00:32.292Z,2648.00
2023-04-26T10:01:32.273Z,2703.00
2023-04-26T10:02:32.250Z,2692.00
2023-04-26T10:03:32.294Z,2755.00
2023-04-26T10:04:32.189Z,2828.00
2023-04-26T10:05:33.803Z,2886.00
2023-04-26T10:06:32.148Z,2898.00
2023-04-26T10:07:32.111Z,2938.00
2023-04-26T10:08:32.073Z,2980.00
2023-04-26T10:09:32.041Z,2981.00
2023-04-26T10:10:32.071Z,3047.00
2023-04-26T10:11:31.998Z,3073.00
2023-04-26T10:12:31.960Z,3102.00
2023-04-26T10:13:31.949Z,3129.00
2023-04-26T10:14:31.913Z,3142.00
2023-04-26T10:15:31.918Z,3183.00
2023-04-26T10:16:31.889Z,3229.00
2023-04-26T10:17:31.887Z,3267.00
2023-04-26T10:18:31.828Z,3298.00
2023-04-26T10:19:31.799Z,3316.00
2023-04-26T10:20:31.783Z,3356.00
2023-04-26T10:21:31.817Z,3385.00
2023-04-26T10:22:31.825Z,3405.00
2023-04-26T10:23:31.868Z,3455.00
2023-04-26T10:24:31.885Z,3490.00
2023-04-26T10:25:31.900Z,3529.00
2023-04-26T10:26:31.924Z,3562.00
2023-04-26T10:27:31.945Z,3612.00
2023-04-26T10:28:31.951Z,3642.00
2023-04-26T10:29:31.962Z,3663.00
2023-04-26T10:30:31.992Z,3691.00
2023-04-26T10:31:32.060Z,3725.00
2023-04-26T10:32:32.009Z,3773.00
2023-04-26T10:33:32.094Z,3802.00
2023-04-26T10:34:32.014Z,3825.00
2023-04-26T10:35:31.989Z,3827.00
2023-04-26T10:36:31.954Z,3836.00
2023-04-26T10:37:31.935Z,3860.00
2023-04-26T10:38:31.909Z,3902.00
2023-04-26T10:39:31.905Z,3972.00
2023-04-26T10:40:31.861Z,4024.00
2023-04-26T10:41:31.847Z,4025.00
2023-04-26T10:42:31.812Z,4054.00
2023-04-26T10:43:31.773Z,4071.00
2023-04-26T10:44:31.749Z,4090.00
2023-04-26T10:45:31.732Z,4120.00
2023-04-26T10:46:31.894Z,4129.00
2023-04-26T10:47:31.868Z,4142.00
2023-04-26T10:48:31.680Z,4167.00
2023-04-26T10:49:31.692Z,4173.00
2023-04-26T10:50:31.590Z,4204.00
2023-04-26T10:51:31.599Z,4225.00
2023-04-26T10:52:31.559Z,4223.00
2023-04-26T10:53:31.530Z,4232.00
2023-04-26T10:54:31.548Z,4251.00
2023-04-26T10:55:31.511Z,4249.00
2023-04-26T10:56:31.450Z,4271.00
2023-04-26T10:57:31.426Z,4271.00
2023-04-26T10:58:31.422Z,4304.00
2023-04-26T10:59:43.417Z,4312.00
2023-04-26T11:00:33.210Z,4313.00
2023-04-26T11:01:31.439Z,4316.00
2023-04-26T11:02:31.363Z,4325.00
2023-04-26T11:03:31.395Z,4352.00
2023-04-26T11:04:31.300Z,4372.00
2023-04-26T11:05:31.200Z,4396.00
2023-04-26T11:06:31.173Z,4391.00
2023-04-26T11:07:31.146Z,4396.00
2023-04-26T11:08:31.090Z,4395.00
2023-04-26T11:09:31.055Z,4402.00
2023-04-26T11:10:31.040Z,4415.00
2023-04-26T11:11:31.017Z,4426.00
2023-04-26T11:12:31.065Z,4441.00
2023-04-26T11:13:31.023Z,4424.00
2023-04-26T11:14:31.044Z,4437.00
2023-04-26T11:15:31.080Z,4442.00
2023-04-26T11:16:31.167Z,4446.00
2023-04-26T11:17:31.145Z,4459.00
2023-04-26T11:18:31.139Z,4486.00
2023-04-26T11:19:31.172Z,4497.00
2023-04-26T11:20:31.193Z,4485.00
2023-04-26T11:21:31.239Z,4484.00
2023-04-26T11:22:31.310Z,4500.00
2023-04-26T11:23:31.358Z,4500.00
2023-04-26T11:24:32.310Z,4516.00
2023-04-26T11:25:31.374Z,4522.00
2023-04-26T11:26:31.412Z,4531.00
2023-04-26T11:27:31.412Z,4554.00
2023-04-26T11:28:33.883Z,4557.00
2023-04-26T11:29:31.410Z,4581.00
2023-04-26T11:30:31.375Z,4573.00
2023-04-26T11:31:31.394Z,4574.00
2023-04-26T11:32:31.313Z,4577.00
2023-04-26T11:33:31.254Z,4585.00
2023-04-26T11:34:31.234Z,4613.00
2023-04-26T11:35:31.252Z,4640.00
2023-04-26T11:36:31.185Z,4647.00
2023-04-26T11:37:31.144Z,4647.00
2023-04-26T11:38:31.118Z,4668.00
2023-04-26T11:39:31.081Z,4672.00
2023-04-26T11:40:31.122Z,4683.00
2023-04-26T11:41:31.096Z,4685.00
2023-04-26T11:42:31.126Z,4686.00
2023-04-26T11:43:31.174Z,4695.00
2023-04-26T11:44:31.180Z,4697.00
2023-04-26T11:45:31.170Z,4710.00
2023-04-26T11:46:31.225Z,4699.00
2023-04-26T11:47:31.206Z,4690.00
2023-04-26T11:48:31.213Z,4677.00
2023-04-26T11:49:31.180Z,4677.00
2023-04-26T11:50:31.160Z,4681.00
2023-04-26T11:51:32.230Z,4682.00
2023-04-26T11:52:31.131Z,4664.00
2023-04-26T11:53:31.052Z,4648.00
2023-04-26T11:54:31.014Z,4616.00
2023-04-26T11:55:31.006Z,4591.00
2023-04-26T11:56:30.980Z,4578.00
2023-04-26T11:57:30.936Z,4572.00
2023-04-26T11:58:30.938Z,4522.00
2023-04-26T11:59:30.894Z,4472.00
2023-04-26T12:00:30.831Z,4472.00
2023-04-26T12:01:30.807Z,4475.00
2023-04-26T12:02:30.871Z,4483.00
2023-04-26T12:03:30.897Z,4480.00
2023-04-26T12:04:30.946Z,4439.00
2023-04-26T12:05:30.841Z,4427.00
2023-04-26T12:06:30.672Z,4420.00
2023-04-26T12:07:30.592Z,4401.00
2023-04-26T12:08:30.553Z,4387.00
2023-04-26T12:09:30.528Z,4371.00
2023-04-26T12:10:30.509Z,4332.00
2023-04-26T12:11:30.490Z,4322.00
2023-04-26T12:12:30.538Z,4323.00